Time;durP1;ratioP1;P1;durP2;ratioP2;P2;SDS_P1;SDS_P2;PMS_P1;PMS_P2;Temp;Humidity;BMP_temperature;BMP_pressure;BME280_temperature;BME280_humidity;BME280_pressure;Samples;Min_cycle;Max_cycle;Signal;HPM_P1;HPM_P2
2023/07/20 00:02:15;;;;;;;8.80;2.42;;;;;;;21.89;48.60;93609.44;5104434;28;20048;-75
2023/07/20 00:04:40;;;;;;;6.63;2.60;;;;;;;21.94;48.47;93614.47;5102645;28;20036;-75
2023/07/20 00:07:05;;;;;;;10.00;2.13;;;;;;;21.92;49.47;93603.25;5089743;28;20410;-76
2023/07/20 00:09:31;;;;;;;5.15;2.05;;;;;;;21.95;49.07;93593.59;5103792;28;20760;-74
2023/07/20 00:11:56;;;;;;;6.57;2.15;;;;;;;21.90;48.98;93597.47;5105052;28;20133;-76
2023/07/20 00:14:22;;;;;;;9.20;2.72;;;;;;;21.91;48.51;93598.22;5085302;28;20157;-75
2023/07/20 00:16:55;;;;;;;8.75;2.95;;;;;;;21.84;48.25;93580.06;5104679;28;20124;-75
2023/07/20 00:19:20;;;;;;;9.05;2.65;;;;;;;21.87;48.25;93588.19;5105551;28;20039;-76
2023/07/20 00:21:46;;;;;;;7.13;1.65;;;;;;;21.89;48.65;93612.16;5104275;28;20040;-75
2023/07/20 00:24:11;;;;;;;9.20;2.67;;;;;;;21.89;48.50;93601.34;5102481;28;20113;-75
2023/07/20 00:26:37;;;;;;;7.85;2.40;;;;;;;21.85;48.46;93616.81;5103852;28;20028;-75
2023/07/20 00:29:05;;;;;;;5.18;2.95;;;;;;;21.80;48.94;93630.75;5087085;28;20504;-75
2023/07/20 00:31:31;;;;;;;8.20;2.05;;;;;;;21.84;48.71;93626.09;5102287;28;20028;-75
2023/07/20 00:33:56;;;;;;;11.15;2.80;;;;;;;21.78;48.39;93606.75;5105533;28;20078;-75
2023/07/20 00:36:21;;;;;;;6.70;2.38;;;;;;;21.87;48.46;93622.59;5103009;28;20036;-75
2023/07/20 00:38:47;;;;;;;5.47;2.05;;;;;;;21.80;48.91;93614.50;5105800;28;20110;-75
2023/07/20 00:41:13;;;;;;;9.35;2.58;;;;;;;21.87;48.31;93625.31;5084749;28;20029;-76
2023/07/20 00:43:38;;;;;;;5.93;2.00;;;;;;;21.70;49.44;93607.16;5083472;28;20274;-74
2023/07/20 00:46:04;;;;;;;7.28;2.28;;;;;;;21.77;49.52;93599.78;5103820;28;20035;-75
2023/07/20 00:48:31;;;;;;;5.60;2.38;;;;;;;21.74;50.55;93599.81;5089820;28;20081;-75
2023/07/20 00:50:58;;;;;;;10.82;2.58;;;;;;;21.60;50.16;93584.34;5100064;28;20068;-75
2023/07/20 00:53:23;;;;;;;3.40;1.75;;;;;;;21.60;51.05;93594.41;5086386;28;20134;-75
2023/07/20 00:55:49;;;;;;;9.80;3.40;;;;;;;21.62;50.68;93600.19;5100202;28;20071;-74
2023/07/20 00:58:14;;;;;;;6.07;2.35;;;;;;;21.50;51.48;93597.84;5095284;28;20040;-75
2023/07/20 01:00:40;;;;;;;8.95;2.42;;;;;;;21.53;50.71;93595.13;5097006;28;20074;-74
2023/07/20 01:03:05;;;;;;;9.63;2.38;;;;;;;21.54;51.23;93606.75;5099119;28;20040;-75
2023/07/20 01:06:09;;;;;;;5.30;2.42;;;;;;;21.55;50.31;93592.09;5083947;28;20020;-74
2023/07/20 01:08:35;;;;;;;5.80;2.00;;;;;;;21.53;49.58;93588.97;5098472;28;20047;-74
2023/07/20 01:11:18;;;;;;;5.13;2.25;;;;;;;21.50;49.80;93595.94;5079656;28;20016;-74
2023/07/20 01:13:44;;;;;;;4.03;2.00;;;;;;;21.39;50.71;93604.03;5099366;28;20048;-75
2023/07/20 01:16:09;;;;;;;7.07;2.75;;;;;;;21.38;51.26;93604.41;5096725;28;20071;-74
2023/07/20 01:18:35;;;;;;;6.90;2.33;;;;;;;21.31;51.03;93591.69;5078751;28;20041;-75
2023/07/20 01:21:06;;;;;;;6.78;2.08;;;;;;;21.26;51.72;93596.69;5098748;28;20077;-74
2023/07/20 01:24:10;;;;;;;6.65;2.38;;;;;;;21.20;51.36;93606.34;5099771;28;20084;-74
2023/07/20 01:27:07;;;;;;;4.95;2.72;;;;;;;21.11;51.83;93590.50;5098937;28;20099;-75
2023/07/20 01:30:00;;;;;;;8.85;2.30;;;;;;;21.20;51.16;93598.22;5050465;28;20050;-74
2023/07/20 01:32:27;;;;;;;5.93;2.55;;;;;;;21.18;51.16;93592.41;5093190;28;20039;-74
2023/07/20 01:34:55;;;;;;;9.10;2.55;;;;;;;21.15;51.58;93610.19;5099336;28;20121;-75
2023/07/20 01:37:25;;;;;;;4.68;2.30;;;;;;;21.13;51.67;93604.41;5098240;28;20043;-73
2023/07/20 01:39:54;;;;;;;7.93;2.53;;;;;;;20.97;52.39;93595.88;5098054;28;20417;-74
2023/07/20 01:42:21;;;;;;;9.13;4.07;;;;;;;20.88;51.85;93592.75;5076204;28;20036;-73
2023/07/20 01:44:46;;;;;;;5.22;2.08;;;;;;;20.83;52.53;93583.06;5097325;28;20031;-74
2023/07/20 01:47:12;;;;;;;7.40;2.50;;;;;;;20.92;53.15;93598.97;5098169;28;20032;-74
2023/07/20 01:49:37;;;;;;;7.00;3.08;;;;;;;20.84;53.30;93597.34;5097161;28;20048;-75
2023/07/20 01:52:03;;;;;;;5.68;2.08;;;;;;;20.75;54.14;93583.44;5098742;28;20126;-75
2023/07/20 01:54:28;;;;;;;5.13;2.45;;;;;;;20.72;54.30;93589.63;5097165;28;20108;-75
2023/07/20 01:56:54;;;;;;;6.85;2.45;;;;;;;20.68;54.28;93586.88;5099705;28;20093;-75
2023/07/20 01:59:19;;;;;;;8.30;2.53;;;;;;;20.53;54.23;93586.06;5080019;28;20058;-74
2023/07/20 02:01:44;;;;;;;5.45;2.63;;;;;;;20.47;54.96;93582.22;5077530;28;20054;-75
2023/07/20 02:04:10;;;;;;;9.02;2.88;;;;;;;20.48;55.33;93586.44;5096306;28;20055;-74
2023/07/20 02:06:35;;;;;;;4.80;2.55;;;;;;;20.33;56.04;93582.16;5094697;28;20040;-75
2023/07/20 02:09:00;;;;;;;10.85;3.05;;;;;;;20.22;56.59;93589.44;5097519;28;20040;-77
2023/07/20 02:11:26;;;;;;;4.85;2.40;;;;;;;20.18;56.86;93594.06;5097151;28;20103;-74
2023/07/20 02:13:51;;;;;;;4.43;2.17;;;;;;;20.19;57.71;93594.84;5098681;28;20036;-74
2023/07/20 02:16:17;;;;;;;8.68;3.17;;;;;;;20.05;57.26;93573.88;5097550;28;20145;-74
2023/07/20 02:18:42;;;;;;;5.47;2.50;;;;;;;20.12;57.61;93595.53;5083765;28;21135;-73
2023/07/20 02:21:07;;;;;;;7.88;2.28;;;;;;;20.11;57.45;93596.66;5100252;28;20503;-74
2023/07/20 02:23:33;;;;;;;6.88;3.05;;;;;;;20.05;57.67;93596.25;5101103;28;20035;-74
2023/07/20 02:25:58;;;;;;;9.52;2.85;;;;;;;19.94;57.74;93586.56;5100305;28;20051;-74
2023/07/20 02:28:24;;;;;;;11.50;2.58;;;;;;;20.02;57.36;93590.84;5099986;28;20032;-74
2023/07/20 02:30:49;;;;;;;9.40;2.38;;;;;;;19.80;57.17;93562.94;5101714;28;20048;-74
2023/07/20 02:33:15;;;;;;;5.35;2.60;;;;;;;19.97;57.43;93591.19;5100682;28;20032;-73
2023/07/20 02:35:40;;;;;;;11.43;3.42;;;;;;;19.97;57.65;93583.09;5100866;28;20024;-74
2023/07/20 02:38:06;;;;;;;7.55;2.67;;;;;;;19.88;57.30;93575.34;5100391;28;20036;-74
2023/07/20 02:40:32;;;;;;;7.85;2.50;;;;;;;19.89;57.60;93576.91;5081099;28;20040;-74
2023/07/20 02:42:57;;;;;;;9.00;3.15;;;;;;;;;;5103451;28;20040;-75
2023/07/20 02:45:23;;;;;;;10.83;3.10;;;;;;;19.90;56.93;93564.94;5098637;28;20040;-74
2023/07/20 02:47:49;;;;;;;11.40;3.38;;;;;;;19.87;57.41;93564.94;5098142;28;20277;-74
2023/07/20 02:50:14;;;;;;;6.25;2.70;;;;;;;19.90;57.73;93562.25;5101923;28;20023;-75
2023/07/20 02:52:41;;;;;;;10.07;2.65;;;;;;;19.85;57.29;93559.16;5097023;28;20062;-74
2023/07/20 02:55:06;;;;;;;10.05;3.13;;;;;;;19.73;57.70;93550.22;5097997;28;20033;-73
2023/07/20 02:57:32;;;;;;;6.35;2.53;;;;;;;19.75;57.54;93561.38;5105875;28;20036;-74
2023/07/20 02:59:57;;;;;;;8.57;3.13;;;;;;;19.69;58.26;93562.91;5105437;28;20059;-75
2023/07/20 03:02:23;;;;;;;9.82;3.30;;;;;;;19.59;58.45;93560.91;5109439;28;20067;-76
2023/07/20 03:04:48;;;;;;;6.50;2.50;;;;;;;19.46;58.83;93548.88;5087151;28;20044;-74
2023/07/20 03:07:13;;;;;;;7.75;2.67;;;;;;;19.63;59.14;93564.41;5108541;28;20058;-76
2023/07/20 03:09:39;;;;;;;6.90;2.88;;;;;;;19.54;58.98;93555.88;5092881;28;20078;-75
2023/07/20 03:12:05;;;;;;;6.50;2.63;;;;;;;19.49;58.84;93553.53;5108156;28;20047;-75
2023/07/20 03:14:30;;;;;;;10.23;2.67;;;;;;;19.64;58.87;93576.75;5111098;28;20020;-75
2023/07/20 03:16:56;;;;;;;7.22;2.90;;;;;;;19.59;58.58;93569.00;5106837;28;20047;-74
2023/07/20 03:19:21;;;;;;;10.80;3.30;;;;;;;19.66;58.00;93579.06;5102173;28;20133;-73
2023/07/20 03:21:46;;;;;;;9.05;2.92;;;;;;;19.56;57.72;93572.44;5098024;28;20037;-75
2023/07/20 03:24:12;;;;;;;9.02;3.08;;;;;;;19.60;57.88;93575.94;5099331;28;20037;-73
2023/07/20 03:26:37;;;;;;;7.43;2.78;;;;;;;19.44;58.52;93561.94;5098992;28;20027;-74
2023/07/20 03:29:04;;;;;;;6.80;2.28;;;;;;;19.57;58.35;93592.88;5081205;28;20016;-75
2023/07/20 03:31:30;;;;;;;7.70;3.35;;;;;;;19.47;58.06;93577.38;5096657;28;20040;-73
2023/07/20 03:33:55;;;;;;;10.25;4.05;;;;;;;19.54;58.16;93582.84;5099442;28;20142;-74
2023/07/20 03:36:22;;;;;;;8.93;3.22;;;;;;;19.53;58.85;93575.91;5085473;28;20081;-73
2023/07/20 03:38:47;;;;;;;5.63;2.72;;;;;;;19.50;59.41;93573.97;5098411;28;20035;-74
2023/07/20 03:41:12;;;;;;;9.95;3.88;;;;;;;19.53;59.10;93570.50;5099518;28;20012;-74
2023/07/20 03:43:38;;;;;;;5.97;2.85;;;;;;;19.67;59.06;93586.78;5081616;28;20043;-74
2023/07/20 03:46:06;;;;;;;8.73;3.28;;;;;;;19.53;59.43;93567.03;5100188;28;20032;-74
2023/07/20 03:48:32;;;;;;;8.85;2.53;;;;;;;19.62;59.24;93578.25;5099487;28;20104;-74
2023/07/20 03:50:58;;;;;;;12.35;4.30;;;;;;;19.64;58.85;93581.38;5101313;28;20070;-75
2023/07/20 03:53:23;;;;;;;7.72;2.75;;;;;;;19.74;58.92;93592.25;5097356;28;20105;-74
2023/07/20 03:55:50;;;;;;;9.73;3.35;;;;;;;19.64;58.92;93563.25;5097664;28;20078;-74
2023/07/20 03:58:16;;;;;;;9.07;3.78;;;;;;;19.78;59.28;93591.47;5098683;28;20032;-74
2023/07/20 04:00:45;;;;;;;7.25;2.58;;;;;;;19.68;58.85;93571.38;5099317;28;20046;-74
2023/07/20 04:03:11;;;;;;;7.97;2.72;;;;;;;19.77;58.71;93579.13;5080182;28;20392;-75
2023/07/20 04:05:36;;;;;;;9.02;2.83;;;;;;;19.84;58.88;93581.88;5085994;28;20058;-76
2023/07/20 04:08:02;;;;;;;11.05;3.38;;;;;;;19.98;58.57;93590.84;5103347;28;20031;-76
2023/07/20 04:10:27;;;;;;;6.75;2.97;;;;;;;19.85;59.66;93565.28;5106353;28;20035;-76
2023/07/20 04:12:52;;;;;;;7.20;2.92;;;;;;;19.99;59.39;93570.03;5108353;28;20024;-75
2023/07/20 04:15:18;;;;;;;9.98;3.20;;;;;;;20.10;59.97;93576.22;5105232;28;20044;-74
2023/07/20 04:17:45;;;;;;;9.52;3.53;;;;;;;20.17;59.56;93570.91;5104969;28;20047;-75
2023/07/20 04:20:10;;;;;;;11.57;2.90;;;;;;;20.14;59.78;93560.84;5105412;28;20028;-73
2023/07/20 04:22:36;;;;;;;10.68;3.28;;;;;;;20.26;59.94;93560.53;5089368;28;20040;-75
2023/07/20 04:25:02;;;;;;;9.52;3.33;;;;;;;20.41;59.25;93564.81;5092992;28;20061;-76
2023/07/20 04:27:28;;;;;;;8.45;2.63;;;;;;;20.53;58.91;93566.41;5106604;28;20032;-75
2023/07/20 04:29:53;;;;;;;6.50;2.50;;;;;;;20.67;58.86;93566.44;5103912;28;20036;-75
2023/07/20 04:32:18;;;;;;;11.55;3.30;;;;;;;20.77;58.72;93563.00;5101867;28;20057;-73
2023/07/20 04:34:44;;;;;;;9.70;3.63;;;;;;;20.89;58.47;93567.28;5097120;28;20036;-73
2023/07/20 04:37:09;;;;;;;11.00;3.42;;;;;;;20.87;58.34;93554.16;5081103;28;20027;-73
2023/07/20 04:39:34;;;;;;;8.38;3.08;;;;;;;21.05;57.13;93559.59;5097849;28;20092;-73
2023/07/20 04:42:00;;;;;;;6.47;2.63;;;;;;;21.13;56.75;93554.94;5098365;28;20800;-74
2023/07/20 04:44:26;;;;;;;13.65;3.35;;;;;;;21.32;56.39;93549.94;5083670;28;20028;-74
2023/07/20 04:46:51;;;;;;;11.95;4.05;;;;;;;21.32;55.99;93539.09;5082831;28;20053;-74
2023/07/20 04:49:17;;;;;;;10.25;3.40;;;;;;;21.41;56.18;93544.91;5098099;28;20056;-74
2023/07/20 04:51:42;;;;;;;7.15;2.95;;;;;;;21.50;56.46;93539.13;5098693;28;20115;-74
2023/07/20 04:54:07;;;;;;;11.38;3.60;;;;;;;21.67;56.05;93561.91;5098914;28;20033;-73
2023/07/20 04:56:33;;;;;;;8.10;3.35;;;;;;;21.66;55.45;93542.19;5098501;28;20046;-75
2023/07/20 04:58:59;;;;;;;11.73;3.22;;;;;;;21.77;55.71;93550.28;5099683;28;20042;-75
2023/07/20 05:01:24;;;;;;;9.52;3.83;;;;;;;21.80;56.33;93544.88;5096131;28;20040;-74
2023/07/20 05:03:49;;;;;;;9.65;3.35;;;;;;;21.94;55.49;93556.84;5102094;28;20132;-75
2023/07/20 05:06:15;;;;;;;13.00;3.47;;;;;;;22.10;54.91;93554.47;5102856;28;20032;-75
2023/07/20 05:08:41;;;;;;;13.70;3.60;;;;;;;22.06;55.50;93532.03;5102500;28;20031;-74
2023/07/20 05:11:07;;;;;;;10.75;3.78;;;;;;;22.27;54.68;93551.72;5084477;28;20028;-75
2023/07/20 05:13:33;;;;;;;18.30;3.65;;;;;;;22.34;54.19;93558.28;5105300;28;20147;-75
2023/07/20 05:15:58;;;;;;;10.38;3.33;;;;;;;22.37;53.01;93549.38;5102272;28;20016;-74
2023/07/20 05:18:24;;;;;;;15.35;3.78;;;;;;;22.50;52.70;93562.06;5087185;28;20093;-75
2023/07/20 05:20:50;;;;;;;9.80;3.55;;;;;;;22.55;52.59;93566.31;5104775;28;20027;-75
2023/07/20 05:23:21;;;;;;;8.15;3.50;;;;;;;22.55;52.06;93550.81;5102264;28;20020;-76
2023/07/20 05:25:53;;;;;;;6.63;3.03;;;;;;;22.46;52.11;93530.75;5085639;28;20055;-75
2023/07/20 05:28:19;;;;;;;14.20;4.60;;;;;;;22.64;52.33;93553.88;5101651;28;20062;-74
2023/07/20 05:30:44;;;;;;;4.20;2.78;;;;;;;22.72;51.14;93560.03;5085012;28;20135;-74
2023/07/20 05:33:09;;;;;;;7.78;2.70;;;;;;;22.80;51.91;93580.50;5104036;28;20048;-75
2023/07/20 05:35:36;;;;;;;22.80;4.40;;;;;;;22.80;51.85;93572.38;5104286;28;20084;-75
2023/07/20 05:38:02;;;;;;;14.20;3.58;;;;;;;22.70;51.26;93579.41;5084860;28;20028;-74
2023/07/20 05:40:27;;;;;;;10.73;3.00;;;;;;;22.70;51.43;93573.19;5101978;28;20047;-75
2023/07/20 05:42:53;;;;;;;13.52;3.55;;;;;;;22.78;51.29;93574.69;5101563;28;20048;-75
2023/07/20 05:45:20;;;;;;;11.95;2.95;;;;;;;22.84;51.45;93580.47;5102142;28;20099;-75
2023/07/20 05:47:46;;;;;;;13.88;2.97;;;;;;;22.78;51.06;93580.13;5088727;28;20036;-75
2023/07/20 05:50:11;;;;;;;15.15;3.67;;;;;;;22.71;50.18;93569.34;5085236;28;20008;-74
2023/07/20 05:52:38;;;;;;;17.38;3.38;;;;;;;22.69;50.12;93583.28;5102643;28;20044;-74
2023/07/20 05:55:04;;;;;;;12.32;3.30;;;;;;;22.75;50.10;93597.19;5101892;28;20070;-75
2023/07/20 05:57:30;;;;;;;11.40;3.30;;;;;;;22.71;50.54;93580.19;5103564;28;20052;-74
2023/07/20 05:59:55;;;;;;;9.68;3.20;;;;;;;22.83;50.90;93578.97;5102707;28;20407;-74
2023/07/20 06:02:21;;;;;;;9.32;2.95;;;;;;;22.92;49.77;93582.81;5101777;28;20178;-74
2023/07/20 06:04:47;;;;;;;10.23;3.50;;;;;;;22.94;48.98;93576.97;5102463;28;20059;-74
2023/07/20 06:07:12;;;;;;;12.18;3.05;;;;;;;23.02;50.30;93590.13;5102092;28;20020;-76
2023/07/20 06:09:38;;;;;;;9.95;3.20;;;;;;;22.91;49.25;93566.94;5084624;28;20070;-75
2023/07/20 06:12:03;;;;;;;7.43;2.75;;;;;;;22.98;49.15;93585.84;5103264;28;20604;-74
2023/07/20 06:14:29;;;;;;;9.45;2.90;;;;;;;23.13;49.71;93579.16;5103089;28;20424;-75
2023/07/20 06:16:55;;;;;;;12.60;3.88;;;;;;;23.12;48.89;93578.41;5103210;28;20039;-75
2023/07/20 06:19:22;;;;;;;10.73;3.67;;;;;;;23.09;48.59;93568.34;5102671;28;20143;-74
2023/07/20 06:21:47;;;;;;;9.18;3.60;;;;;;;23.07;48.58;93567.97;5088524;28;20112;-75
2023/07/20 06:24:13;;;;;;;9.35;3.17;;;;;;;23.12;48.78;93564.84;5101511;28;20032;-75
2023/07/20 06:26:39;;;;;;;10.50;3.15;;;;;;;22.92;49.97;93519.66;5103221;28;20622;-75
2023/07/20 06:29:08;;;;;;;12.20;3.28;;;;;;;23.29;49.34;93563.16;5099400;28;20040;-74
2023/07/20 06:31:34;;;;;;;11.68;2.72;;;;;;;23.29;47.82;93543.41;5099063;28;20046;-74
2023/07/20 06:34:00;;;;;;;13.73;3.08;;;;;;;23.29;48.14;93548.84;5100677;28;20040;-74
2023/07/20 06:36:26;;;;;;;9.63;2.88;;;;;;;23.30;48.28;93561.22;5102744;28;20043;-74
2023/07/20 06:38:52;;;;;;;9.13;3.20;;;;;;;23.38;47.77;93549.16;5102122;28;20016;-74
2023/07/20 06:41:18;;;;;;;13.95;3.20;;;;;;;23.35;46.94;93541.81;5085199;28;20142;-74
2023/07/20 06:43:43;;;;;;;9.88;3.22;;;;;;;23.39;47.31;93543.31;5100931;28;20109;-75
2023/07/20 06:46:08;;;;;;;10.70;3.25;;;;;;;23.53;47.90;93553.31;5092308;28;20040;-75
2023/07/20 06:48:34;;;;;;;7.60;3.53;;;;;;;23.55;46.62;93556.41;5079568;28;20052;-74
2023/07/20 06:50:59;;;;;;;12.70;3.95;;;;;;;23.61;46.27;93559.47;5097524;28;20035;-74
2023/07/20 06:53:25;;;;;;;13.90;3.38;;;;;;;23.70;46.87;93560.53;5098403;28;20024;-75
2023/07/20 06:55:50;;;;;;;12.45;3.83;;;;;;;23.77;45.81;93557.75;5098368;28;20289;-75
2023/07/20 06:58:16;;;;;;;12.15;3.92;;;;;;;23.80;45.77;93567.03;5097271;28;20039;-75
2023/07/20 07:00:42;;;;;;;7.22;3.55;;;;;;;23.69;46.43;93552.78;5097028;28;20066;-75
2023/07/20 07:03:07;;;;;;;11.52;3.60;;;;;;;23.84;45.41;93573.97;5079634;28;20491;-74
2023/07/20 07:05:38;;;;;;;7.75;2.80;;;;;;;24.01;46.16;93589.31;5077938;28;20016;-75
2023/07/20 07:08:07;;;;;;;11.30;3.97;;;;;;;24.22;46.51;93584.88;5084509;28;20040;-75
2023/07/20 07:10:34;;;;;;;9.98;3.78;;;;;;;24.29;45.01;93590.22;5103142;28;20048;-76
2023/07/20 07:13:00;;;;;;;9.85;3.65;;;;;;;24.25;45.68;93597.63;5100432;28;20437;-74
2023/07/20 07:15:26;;;;;;;9.35;3.35;;;;;;;24.22;46.50;93595.72;5083607;28;20028;-75
2023/07/20 07:17:51;;;;;;;15.73;3.65;;;;;;;24.32;46.19;93603.00;5084795;28;20043;-75
2023/07/20 07:20:17;;;;;;;6.28;2.88;;;;;;;24.39;45.43;93619.25;5103302;28;20019;-74
2023/07/20 07:22:43;;;;;;;10.60;3.70;;;;;;;24.44;45.71;93624.22;5102725;28;20483;-74
2023/07/20 07:25:09;;;;;;;13.68;3.83;;;;;;;24.49;45.51;93629.22;5086525;28;20043;-75
2023/07/20 07:27:35;;;;;;;11.82;3.75;;;;;;;24.44;46.37;93627.69;5102951;28;20032;-75
2023/07/20 07:30:01;;;;;;;8.05;4.43;;;;;;;24.16;46.53;93616.34;5097346;28;20091;-74
2023/07/20 07:32:26;;;;;;;13.90;4.05;;;;;;;24.28;46.48;93632.16;5102053;28;20217;-75
2023/07/20 07:34:51;;;;;;;10.07;4.25;;;;;;;24.27;46.85;93623.25;5100972;28;20032;-74
2023/07/20 07:37:19;;;;;;;13.32;4.15;;;;;;;24.24;47.37;93617.84;5102405;28;20028;-74
2023/07/20 07:39:45;;;;;;;14.68;5.13;;;;;;;23.97;46.94;93604.09;5101009;28;20035;-74
2023/07/20 07:42:11;;;;;;;12.32;4.68;;;;;;;24.07;47.27;93611.38;5081881;28;20131;-74
2023/07/20 07:44:36;;;;;;;19.67;4.35;;;;;;;24.20;47.86;93614.41;5103801;28;20161;-74
2023/07/20 07:47:02;;;;;;;10.45;3.83;;;;;;;24.37;48.25;93616.16;5102551;28;20019;-75
2023/07/20 07:49:27;;;;;;;13.48;3.95;;;;;;;24.39;48.25;93598.25;5100475;28;20621;-74
2023/07/20 07:51:53;;;;;;;11.38;3.95;;;;;;;24.21;48.23;93591.47;5101874;28;20070;-74
2023/07/20 07:54:18;;;;;;;13.90;3.60;;;;;;;24.25;48.79;93581.31;5106275;28;20036;-74
2023/07/20 07:56:44;;;;;;;10.23;4.80;;;;;;;24.36;49.08;93582.75;5105970;28;20039;-74
2023/07/20 07:59:10;;;;;;;13.15;4.13;;;;;;;24.48;49.08;93583.41;5106274;28;20014;-76
2023/07/20 08:01:35;;;;;;;7.70;3.95;;;;;;;24.52;49.27;93567.81;5104328;28;20036;-75
2023/07/20 08:04:00;;;;;;;7.88;3.90;;;;;;;24.54;49.10;93570.91;5105483;28;20050;-75
2023/07/20 08:06:26;;;;;;;11.48;3.67;;;;;;;24.62;48.94;93599.53;5108024;28;20032;-74
2023/07/20 08:08:51;;;;;;;14.07;4.75;;;;;;;24.68;49.38;93608.81;5104190;28;20073;-75
2023/07/20 08:11:17;;;;;;;10.23;3.88;;;;;;;24.70;49.17;93631.69;5103457;28;20011;-75
2023/07/20 08:13:43;;;;;;;12.98;4.05;;;;;;;24.39;49.46;93649.88;5095057;28;20032;-75
2023/07/20 08:16:08;;;;;;;10.50;3.85;;;;;;;24.22;50.14;93653.56;5103686;28;20092;-75
2023/07/20 08:18:34;;;;;;;10.05;4.22;;;;;;;24.07;50.15;93643.19;5105713;28;20032;-75
2023/07/20 08:20:59;;;;;;;7.82;4.35;;;;;;;23.97;51.38;93642.91;5103509;28;20033;-75
2023/07/20 08:23:25;;;;;;;12.85;3.65;;;;;;;23.51;51.87;93642.53;5089131;28;20126;-75
2023/07/20 08:25:50;;;;;;;9.05;3.08;;;;;;;23.40;50.17;93652.66;5085100;28;20034;-74
2023/07/20 08:28:16;;;;;;;4.78;2.40;;;;;;;23.41;50.37;93622.41;5103983;28;20050;-75
2023/07/20 08:30:42;;;;;;;5.50;2.53;;;;;;;23.54;49.04;93644.44;5082857;28;20491;-74
2023/07/20 08:33:10;;;;;;;5.15;2.95;;;;;;;23.53;48.81;93643.66;5103285;28;20069;-74
2023/07/20 08:35:35;;;;;;;14.05;2.88;;;;;;;23.56;49.32;93639.38;5105946;28;20032;-75
2023/07/20 08:38:01;;;;;;;9.15;2.92;;;;;;;23.47;48.50;93636.28;5104231;28;20036;-75
2023/07/20 08:40:26;;;;;;;8.68;2.45;;;;;;;23.27;47.79;93643.44;5102959;28;20035;-74
2023/07/20 08:42:54;;;;;;;7.13;2.78;;;;;;;23.30;48.69;93648.84;5084595;28;20051;-75
2023/07/20 08:45:23;;;;;;;5.50;1.92;;;;;;;23.24;47.48;93639.56;5104377;28;20035;-75
2023/07/20 08:47:50;;;;;;;8.05;2.42;;;;;;;23.41;47.62;93648.75;5086908;28;20073;-75
2023/07/20 08:50:16;;;;;;;10.57;2.85;;;;;;;23.26;48.15;93641.88;5104865;28;20024;-74
2023/07/20 08:52:41;;;;;;;7.28;2.15;;;;;;;23.34;48.24;93622.44;5105394;28;20016;-75
2023/07/20 08:55:07;;;;;;;8.48;2.45;;;;;;;23.39;46.32;93615.81;5103095;28;20092;-74
2023/07/20 08:57:33;;;;;;;9.40;2.83;;;;;;;23.38;47.50;93633.25;5104531;28;20032;-75
2023/07/20 09:00:04;;;;;;;10.55;3.08;;;;;;;23.53;47.04;93629.31;5101830;28;20070;-75
2023/07/20 09:02:35;;;;;;;8.23;1.98;;;;;;;23.38;46.32;93608.84;5105055;28;20053;-75
2023/07/20 09:05:00;;;;;;;6.93;2.45;;;;;;;23.48;47.26;93616.13;5103367;28;20033;-75
2023/07/20 09:07:26;;;;;;;8.35;2.08;;;;;;;23.46;46.07;93615.78;5102820;28;20035;-74
2023/07/20 09:09:52;;;;;;;6.82;2.05;;;;;;;23.35;47.13;93587.94;5104013;28;20041;-75
2023/07/20 09:12:17;;;;;;;10.32;2.53;;;;;;;23.38;45.93;93576.28;5104248;28;20069;-75
2023/07/20 09:14:44;;;;;;;6.63;2.70;;;;;;;23.82;45.47;93625.19;5103312;28;20056;-74
2023/07/20 09:17:13;;;;;;;4.55;1.90;;;;;;;23.68;45.39;93619.88;5103188;28;20054;-75
2023/07/20 09:19:39;;;;;;;6.38;2.10;;;;;;;23.74;45.80;93617.50;5104043;28;20040;-74
2023/07/20 09:22:05;;;;;;;8.38;2.65;;;;;;;23.75;45.13;93598.13;5105076;28;20019;-75
2023/07/20 09:24:32;;;;;;;6.20;2.40;;;;;;;23.86;45.09;93606.91;5104064;28;20038;-75
2023/07/20 09:27:03;;;;;;;6.32;2.17;;;;;;;23.90;45.03;93599.53;5102714;28;20044;-75
2023/07/20 09:29:30;;;;;;;5.38;2.20;;;;;;;23.96;43.78;93607.97;5100178;28;20035;-77
2023/07/20 09:32:05;;;;;;;7.93;2.15;;;;;;;23.85;43.88;93605.41;5103248;28;20028;-75
2023/07/20 09:34:31;;;;;;;5.03;1.98;;;;;;;23.97;43.96;93606.81;5098902;28;20044;-75
2023/07/20 09:36:58;;;;;;;8.93;2.33;;;;;;;24.10;44.32;93607.84;5099030;28;20054;-74
2023/07/20 09:39:23;;;;;;;5.90;2.42;;;;;;;23.98;43.26;93606.44;5099324;28;20024;-74
2023/07/20 09:41:49;;;;;;;12.25;2.63;;;;;;;23.88;42.98;93603.81;5098806;28;20054;-74
2023/07/20 09:44:15;;;;;;;8.75;2.35;;;;;;;23.94;43.89;93602.97;5099013;28;20008;-75
2023/07/20 09:46:42;;;;;;;9.80;1.83;;;;;;;23.94;43.60;93602.19;5080949;28;20039;-75
2023/07/20 09:49:11;;;;;;;12.35;2.35;;;;;;;23.98;43.69;93595.56;5081917;28;20054;-75
2023/07/20 09:51:37;;;;;;;7.85;2.10;;;;;;;24.15;44.12;93593.09;5078325;28;20043;-74
2023/07/20 09:54:04;;;;;;;7.35;2.10;;;;;;;24.29;41.82;93593.72;5100930;28;20541;-74
2023/07/20 09:56:30;;;;;;;7.63;1.77;;;;;;;24.33;43.04;93572.72;5098854;28;20092;-74
2023/07/20 09:58:56;;;;;;;4.47;2.05;;;;;;;24.36;42.42;93546.66;5098236;28;20038;-75
2023/07/20 10:01:24;;;;;;;5.75;2.08;;;;;;;24.38;41.82;93557.91;5097742;28;20036;-75
2023/07/20 10:03:53;;;;;;;7.20;2.45;;;;;;;24.35;42.61;93561.41;5098986;28;20052;-73
2023/07/20 10:06:23;;;;;;;10.38;2.63;;;;;;;24.37;41.95;93568.00;5096969;28;20050;-75
2023/07/20 10:08:52;;;;;;;13.98;2.83;;;;;;;24.34;40.90;93557.19;5095992;28;20089;-75
2023/07/20 10:11:21;;;;;;;4.13;1.92;;;;;;;24.29;40.74;93563.06;5098160;28;20019;-75
2023/07/20 10:13:51;;;;;;;5.57;2.22;;;;;;;24.33;41.27;93566.50;5079919;28;20036;-74
2023/07/20 10:16:36;;;;;;;5.50;1.85;;;;;;;24.47;40.90;93569.03;5100827;28;20043;-74
2023/07/20 10:19:17;;;;;;;5.75;1.80;;;;;;;24.42;41.43;93575.69;5097716;28;20123;-74
2023/07/20 10:21:47;;;;;;;7.80;2.20;;;;;;;24.39;40.47;93570.31;5080219;28;20108;-74
2023/07/20 10:24:13;;;;;;;6.82;1.80;;;;;;;24.39;41.73;93587.38;5099476;28;20024;-74
2023/07/20 10:26:39;;;;;;;7.70;2.05;;;;;;;24.48;41.72;93583.41;5096556;28;20058;-76
2023/07/20 10:29:05;;;;;;;6.10;1.60;;;;;;;24.54;41.08;93574.38;5099018;28;20031;-75
2023/07/20 10:31:32;;;;;;;8.23;2.50;;;;;;;24.58;41.65;93571.63;5097985;28;20533;-74
2023/07/20 10:33:57;;;;;;;7.57;1.90;;;;;;;24.52;41.45;93552.28;5080732;28;20101;-74
2023/07/20 10:36:27;;;;;;;7.10;2.88;;;;;;;24.63;41.80;93535.84;5081596;28;20067;-75
2023/07/20 10:38:54;;;;;;;7.50;2.05;;;;;;;24.82;41.81;93551.53;5098966;28;20038;-75
2023/07/20 10:41:21;;;;;;;8.07;1.70;;;;;;;24.87;42.91;93555.75;5103369;28;20062;-74
2023/07/20 10:43:49;;;;;;;7.18;2.33;;;;;;;24.96;42.16;93545.91;5101450;28;20616;-75
2023/07/20 10:46:15;;;;;;;5.10;2.10;;;;;;;25.01;42.73;93520.19;5101584;28;20036;-74
2023/07/20 10:49:14;;;;;;;7.38;2.33;;;;;;;25.14;41.17;93472.94;5102742;28;20052;-74
2023/07/20 10:51:55;;;;;;;9.77;3.28;;;;;;;25.23;41.75;93480.56;5079534;28;20161;-75
2023/07/20 10:54:22;;;;;;;7.75;3.65;;;;;;;25.34;41.72;93508.41;5102124;28;20036;-75
2023/07/20 10:56:50;;;;;;;10.68;3.22;;;;;;;25.30;42.97;93483.16;5107113;28;20050;-76
2023/07/20 10:59:25;;;;;;;7.53;3.08;;;;;;;25.56;42.91;93504.16;5106694;28;20190;-76
2023/07/20 11:01:55;;;;;;;;;;;;;;;25.60;43.18;93485.78;5088747;28;20040;-75
2023/07/20 11:04:38;;;;;;;7.93;3.35;;;;;;;25.64;41.90;93483.78;5080058;28;19912;-75
2023/07/20 11:07:03;;;;;;;13.30;3.92;;;;;;;25.49;41.46;93466.16;5107407;28;20062;-75
2023/07/20 11:09:34;;;;;;;11.65;4.60;;;;;;;25.56;41.47;93471.47;5106862;28;20039;-75
2023/07/20 11:12:18;;;;;;;9.13;3.28;;;;;;;25.74;41.40;93481.25;5105332;28;20028;-75
2023/07/20 11:14:54;;;;;;;6.07;3.92;;;;;;;25.70;41.95;93473.94;5108722;28;20028;-75
2023/07/20 11:17:22;;;;;;;10.18;4.80;;;;;;;25.97;40.98;93489.41;5089991;28;20049;-74
2023/07/20 11:19:56;;;;;;;11.23;4.32;;;;;;;26.08;40.93;93479.09;5089134;28;20032;-76
2023/07/20 11:22:22;;;;;;;9.85;5.28;;;;;;;26.05;41.51;93482.66;5105988;28;20048;-75
2023/07/20 11:24:49;;;;;;;9.80;5.00;;;;;;;26.16;40.84;93458.66;5104944;28;20039;-75
2023/07/20 11:27:15;;;;;;;7.53;5.15;;;;;;;26.21;40.02;93460.91;5082978;28;20116;-74
2023/07/20 11:29:41;;;;;;;9.50;4.80;;;;;;;26.34;39.88;93469.22;5102770;28;20032;-74
2023/07/20 11:32:07;;;;;;;11.52;5.25;;;;;;;26.48;40.05;93466.97;5102791;28;20016;-74